createdAt,value
2022-11-14T00:05:10.978Z,19.17
2022-11-14T00:10:34.529Z,20.03
2022-11-14T00:15:57.804Z,18.10
2022-11-14T00:21:21.178Z,19.90
2022-11-14T00:26:44.829Z,20.83
2022-11-14T00:32:08.630Z,19.83
2022-11-14T00:37:32.268Z,21.70
2022-11-14T00:42:55.949Z,20.90
2022-11-14T00:48:19.724Z,21.80
2022-11-14T00:53:43.109Z,22.70
2022-11-14T00:59:06.604Z,21.53
2022-11-14T01:04:30.092Z,20.80
2022-11-14T01:09:53.341Z,23.00
2022-11-14T01:15:16.694Z,22.70
2022-11-14T01:20:41.933Z,22.20
2022-11-14T01:26:08.436Z,22.80
2022-11-14T01:31:32.058Z,23.10
2022-11-14T01:36:55.534Z,23.57
2022-11-14T01:42:21.944Z,23.73
2022-11-14T01:47:44.275Z,25.27
2022-11-14T01:53:07.911Z,21.80
2022-11-14T01:58:33.080Z,22.47
2022-11-14T02:03:58.229Z,20.90
2022-11-14T02:09:22.120Z,20.10
2022-11-14T02:14:48.193Z,20.37
2022-11-14T02:20:14.900Z,20.37
2022-11-14T02:25:39.282Z,22.33
2022-11-14T02:31:03.328Z,19.33
2022-11-14T02:36:27.137Z,20.27
2022-11-14T02:41:52.356Z,20.20
2022-11-14T02:47:15.845Z,20.40
2022-11-14T02:52:39.846Z,20.60
2022-11-14T02:58:04.773Z,20.83
2022-11-14T03:03:28.084Z,20.67
2022-11-14T03:08:51.621Z,21.13
2022-11-14T03:14:15.205Z,20.57
2022-11-14T03:19:38.959Z,20.50
2022-11-14T03:25:03.519Z,21.20
2022-11-14T03:30:27.102Z,21.20
2022-11-14T03:35:54.882Z,21.53
2022-11-14T03:41:18.647Z,20.13
2022-11-14T03:46:42.478Z,20.63
2022-11-14T03:52:06.136Z,21.20
2022-11-14T03:57:29.408Z,22.10
2022-11-14T04:02:52.747Z,20.90
2022-11-14T04:08:16.125Z,21.13
2022-11-14T04:13:39.599Z,19.13
2022-11-14T04:19:03.380Z,22.50
2022-11-14T04:24:26.923Z,21.03
2022-11-14T04:29:50.394Z,22.15
2022-11-14T04:35:13.538Z,22.53
2022-11-14T04:40:37.108Z,22.17
2022-11-14T04:46:00.411Z,24.13
2022-11-14T04:51:23.750Z,22.87
2022-11-14T04:56:47.441Z,22.90
2022-11-14T05:02:11.285Z,23.80
2022-11-14T05:07:34.772Z,23.10
2022-11-14T05:12:58.407Z,22.90
2022-11-14T05:18:22.154Z,21.77
2022-11-14T05:23:45.774Z,24.40
2022-11-14T05:29:09.267Z,22.80
2022-11-14T05:34:32.677Z,22.63
2022-11-14T05:39:56.272Z,23.43
2022-11-14T05:45:20.108Z,23.93
2022-11-14T05:50:43.410Z,23.03
2022-11-14T05:56:09.762Z,23.00
2022-11-14T06:01:33.731Z,23.40
2022-11-14T06:06:57.183Z,22.83
2022-11-14T06:12:20.412Z,22.00
2022-11-14T06:17:44.372Z,23.37
2022-11-14T06:23:08.898Z,23.80
2022-11-14T06:28:32.911Z,24.43
2022-11-14T06:33:57.145Z,23.80
2022-11-14T06:39:20.901Z,24.17
2022-11-14T06:44:44.249Z,22.23
2022-11-14T06:50:10.422Z,23.17
2022-11-14T06:55:33.775Z,22.97
2022-11-14T07:00:57.879Z,24.20
2022-11-14T07:06:24.179Z,20.40
2022-11-14T07:11:47.796Z,22.80
2022-11-14T07:17:11.273Z,23.10
2022-11-14T07:22:34.793Z,22.27
2022-11-14T07:27:59.564Z,23.03
2022-11-14T07:33:22.800Z,21.70
2022-11-14T07:38:46.468Z,22.87
2022-11-14T07:44:11.008Z,22.43
2022-11-14T07:49:35.213Z,21.37
2022-11-14T07:54:58.702Z,23.77
2022-11-14T08:00:22.922Z,24.53
2022-11-14T08:05:46.584Z,23.00
2022-11-14T08:11:10.678Z,24.50
2022-11-14T08:16:34.674Z,24.40
2022-11-14T08:21:58.288Z,23.17
2022-11-14T08:27:21.776Z,23.67
2022-11-14T08:32:45.418Z,24.07
2022-11-14T08:38:08.796Z,24.00
2022-11-14T08:43:33.441Z,23.50
2022-11-14T08:48:58.473Z,23.60
2022-11-14T08:54:22.207Z,22.97
2022-11-14T08:59:45.941Z,25.03
2022-11-14T09:05:10.705Z,23.83
2022-11-14T09:10:34.506Z,24.27
2022-11-14T09:15:58.251Z,24.27
2022-11-14T09:21:21.641Z,22.40
2022-11-14T09:26:45.001Z,22.77
2022-11-14T09:32:09.573Z,24.00
2022-11-14T09:37:33.054Z,23.53
2022-11-14T09:43:05.753Z,23.37
2022-11-14T09:48:32.442Z,23.17
2022-11-14T09:54:21.574Z,21.27
2022-11-14T09:59:45.632Z,23.80
2022-11-14T10:05:33.118Z,23.10
2022-11-14T10:11:10.193Z,22.03
2022-11-14T10:16:36.648Z,23.07
2022-11-14T10:22:06.128Z,23.13
2022-11-14T10:27:32.965Z,24.80
2022-11-14T10:33:17.389Z,22.43
2022-11-14T10:38:44.353Z,32.43
2022-11-14T10:44:13.310Z,25.53
2022-11-14T10:49:39.221Z,24.30
2022-11-14T10:55:08.245Z,24.10
2022-11-14T11:00:32.085Z,22.27
2022-11-14T11:05:58.408Z,23.13
2022-11-14T11:11:30.511Z,22.20
2022-11-14T11:17:17.010Z,22.33
2022-11-14T11:22:40.523Z,25.37
2022-11-14T11:28:18.567Z,23.43
2022-11-14T11:33:43.095Z,23.00
2022-11-14T11:39:06.749Z,22.87
2022-11-14T11:44:39.206Z,23.07
2022-11-14T11:50:04.208Z,24.30
2022-11-14T11:55:30.604Z,24.83
2022-11-14T12:00:57.267Z,23.27
2022-11-14T12:06:25.987Z,21.60
2022-11-14T12:11:52.387Z,24.20
2022-11-14T12:17:50.510Z,21.63
2022-11-14T12:23:26.258Z,21.20
2022-11-14T12:29:10.963Z,20.83
2022-11-14T12:34:37.378Z,18.83
2022-11-14T12:40:03.944Z,20.60
2022-11-14T12:45:45.749Z,20.07
2022-11-14T12:51:30.913Z,20.80
2022-11-14T12:57:00.683Z,19.53
2022-11-14T13:02:51.122Z,20.47
2022-11-14T13:08:37.240Z,21.47
2022-11-14T13:14:20.737Z,19.47
2022-11-14T13:20:05.930Z,20.90
2022-11-14T13:25:29.589Z,20.63
2022-11-14T13:31:18.882Z,21.00
2022-11-14T13:36:57.242Z,20.67
2022-11-14T13:42:42.828Z,22.10
2022-11-14T13:48:28.914Z,21.17
2022-11-14T13:53:53.009Z,22.67
2022-11-14T13:59:53.419Z,22.00
2022-11-14T14:05:41.235Z,21.73
2022-11-14T14:11:38.922Z,21.40
2022-11-14T14:17:12.571Z,21.63
2022-11-14T14:22:45.257Z,21.97
2022-11-14T14:28:14.551Z,21.83
2022-11-14T14:33:43.010Z,21.67
2022-11-14T14:39:21.259Z,21.43
2022-11-14T14:44:46.892Z,21.93
2022-11-14T14:50:24.741Z,21.87
2022-11-14T14:56:00.357Z,20.77
2022-11-14T15:01:27.953Z,20.57
2022-11-14T15:06:51.621Z,19.90
2022-11-14T15:12:15.345Z,22.87
2022-11-14T15:17:39.225Z,22.37
2022-11-14T15:23:09.000Z,21.77
2022-11-14T15:28:33.216Z,22.70
2022-11-14T15:34:05.906Z,24.50
2022-11-14T15:39:29.919Z,23.47
2022-11-14T15:44:53.898Z,23.77
2022-11-14T15:50:20.537Z,24.50
2022-11-14T15:55:44.047Z,24.33
2022-11-14T16:01:14.232Z,22.47
2022-11-14T16:06:37.741Z,25.43
2022-11-14T16:12:01.354Z,25.07
2022-11-14T16:17:25.016Z,26.97
2022-11-14T16:22:50.165Z,23.93
2022-11-14T16:28:13.725Z,25.27
2022-11-14T16:33:37.295Z,25.40
2022-11-14T16:39:03.476Z,26.90
2022-11-14T16:44:27.238Z,26.53
2022-11-14T16:49:51.016Z,26.33
2022-11-14T16:55:14.738Z,25.90
2022-11-14T17:00:38.428Z,24.77
2022-11-14T17:06:02.116Z,27.20
2022-11-14T17:11:29.636Z,29.00
2022-11-14T17:16:53.078Z,28.03
2022-11-14T17:22:20.008Z,27.77
2022-11-14T17:27:43.296Z,28.50
2022-11-14T17:33:07.196Z,27.93
2022-11-14T17:38:35.568Z,27.93
2022-11-14T17:44:00.565Z,27.07
2022-11-14T17:49:24.203Z,27.97
2022-11-14T17:54:47.805Z,27.20
2022-11-14T18:00:12.004Z,29.63
2022-11-14T18:05:35.713Z,28.00
2022-11-14T18:11:04.162Z,31.83
2022-11-14T18:16:44.415Z,31.33
2022-11-14T18:21:54.190Z,29.50
2022-11-14T18:27:17.655Z,30.07
2022-11-14T18:32:41.307Z,38.73
2022-11-14T18:38:04.919Z,30.47
2022-11-14T18:43:30.624Z,29.47
2022-11-14T18:48:57.416Z,32.13
2022-11-14T18:54:22.090Z,33.17
2022-11-14T18:59:47.463Z,31.60
2022-11-14T19:05:11.060Z,32.70
2022-11-14T19:10:34.823Z,32.93
2022-11-14T19:16:06.350Z,30.67
2022-11-14T19:21:30.461Z,29.90
2022-11-14T19:26:54.068Z,31.60
2022-11-14T19:32:17.698Z,31.63
2022-11-14T19:37:41.275Z,32.07
2022-11-14T19:43:06.436Z,31.53
2022-11-14T19:48:29.880Z,29.97
2022-11-14T19:53:54.038Z,29.60
2022-11-14T19:59:22.939Z,30.17
2022-11-14T20:04:43.713Z,30.40
2022-11-14T20:10:08.222Z,31.03
2022-11-14T20:15:31.757Z,31.57
2022-11-14T20:20:56.889Z,29.90
2022-11-14T20:26:20.798Z,29.77
2022-11-14T20:31:44.445Z,31.83
2022-11-14T20:37:12.034Z,30.10
2022-11-14T20:42:32.975Z,29.47
2022-11-14T20:47:56.590Z,27.33
2022-11-14T20:53:20.348Z,31.10
2022-11-14T20:58:44.794Z,29.50
2022-11-14T21:04:08.962Z,30.67
2022-11-14T21:09:32.264Z,30.73
2022-11-14T21:14:55.827Z,31.30
2022-11-14T21:20:19.300Z,30.63
2022-11-14T21:25:43.001Z,28.50
2022-11-14T21:31:21.551Z,30.83
2022-11-14T21:36:47.081Z,28.70
2022-11-14T21:42:14.268Z,30.23
2022-11-14T21:47:36.085Z,30.03
2022-11-14T21:52:59.307Z,30.93
2022-11-14T21:58:22.893Z,32.13
2022-11-14T22:04:05.022Z,31.67
2022-11-14T22:09:29.412Z,32.67
2022-11-14T22:14:53.924Z,31.53
2022-11-14T22:20:17.387Z,34.50
2022-11-14T22:25:41.151Z,34.23
2022-11-14T22:31:13.819Z,33.13
2022-11-14T22:36:37.489Z,33.73
2022-11-14T22:42:01.086Z,31.80
2022-11-14T22:47:24.508Z,33.53
2022-11-14T22:52:48.086Z,31.57
2022-11-14T22:58:11.730Z,30.83
2022-11-14T23:03:35.479Z,31.30
2022-11-14T23:08:59.761Z,27.57
2022-11-14T23:14:23.286Z,30.53
2022-11-14T23:19:47.072Z,29.23
2022-11-14T23:25:10.932Z,28.07
2022-11-14T23:30:36.253Z,28.87
2022-11-14T23:35:59.655Z,27.93
2022-11-14T23:41:26.834Z,28.23
2022-11-14T23:46:49.988Z,26.60
2022-11-14T23:52:13.281Z,27.60
2022-11-14T23:57:36.604Z,26.80
